Detalii statie FERMA VISANI-IMB [000011A7]

Toti senzorii

Date Temperatura solului [C]Precipitatii [mm]Voltaj baterie [mV]Leaf Wetness [Min]HC Air temperature [C]HC Relative humidity [%]Punctul de roua [C]
medieminmaxsumaultimatimpmedieminmaxmediemediemin
2019-04-19 19:00:00 13.8 13.5 14.5 0 6552 0 10.93 10.23 11.62 0 0 0
2019-04-19 20:00:00 12.7 12.1 13.5 0 6522 0 9.88 9.24 11.08 0 0 0
2019-04-19 21:00:00 11.4 10.9 12 0 6502 0 8.55 8.2 9.21 0 0 0
2019-04-19 22:00:00 10.6 10.5 10.8 0 6494 0 7.65 7.46 8.01 0 0 0
2019-04-19 23:00:00 9.8 9.6 10.2 0 6474 0 6.76 6.37 7.31 4.64 0
2019-04-20 00:00:00 9 8.8 9.5 0 6474 0 5.83 5.15 6.88 76.14 1.3 -9.4
2019-04-20 01:00:00 8.9 8.9 9.1 0.2 6464 20 6.17 6.07 6.21 100 6.1 6
2019-04-20 02:00:00 8.6 8.3 9.1 0 6444 60 5.62 5.17 6.18 100 5.5 5.1
2019-04-20 03:00:00 8 7.9 8.3 0 6434 60 4.82 4.59 5.19 100 4.7 4.5
2019-04-20 04:00:00 7.5 7.2 7.9 0 6434 60 4.7 3.93 5.07 100 4.6 3.9
2019-04-20 05:00:00 6.9 6.7 7.3 0 6424 60 3.17 2.49 3.76 100 3.1 2.4
2019-04-20 06:00:00 6.1 5.8 6.5 0 6406 60 1.93 1.64 2.3 100 1.8 1.6
2019-04-20 07:00:00 5.8 5.7 6.1 0 6416 60 2.69 1.9 3.76 100 2.6 1.9
2019-04-20 08:00:00 6.3 6.1 6.7 0 6434 60 4.54 3.83 5.67 100 4.5 3.8
2019-04-20 09:00:00 8 6.5 9.5 0 6512 60 7.09 5.94 8.34 39.22 0.2 0
2019-04-20 10:00:00 11.7 9.8 13.9 0 6650 55 10.33 8.53 12.09 0 0 0
2019-04-20 11:00:00 15.9 14.2 18.1 0 6688 0 13.9 12.37 15.57 0 0 0
2019-04-20 12:00:00 19.4 18.3 20.5 0.2 6678 0 15.91 14.72 17.18 0 0 0
2019-04-20 13:00:00 21.5 20.7 22.8 0 6698 0 16.95 16.31 17.73 0 0 0
2019-04-20 14:00:00 22.3 21.3 23.3 0 6708 0 17.27 15.74 18.62 0 0 0
2019-04-20 15:00:00 22.3 20 24.2 0 6630 0 17.32 15.39 19.12 0 0 0
2019-04-20 16:00:00 20.5 19.4 22.2 0 6660 0 16.76 15.11 19.1 0 0 0
2019-04-20 17:00:00 18.8 18.1 19.7 0 6620 0 15.78 14.43 17.24 0 0 0
2019-04-20 18:00:00 17.2 16.3 18 0 6582 0 14.81 13.86 16.26 0 0 0
2019-04-20 19:00:00 16 15.1 16.7 0 6552 0 14.66 12.77 15.53 0 0 0
2019-04-20 20:00:00 13.9 13.1 14.7 0 6532 0 11.57 9.96 12.69 0 0 0
2019-04-20 21:00:00 12.2 11.6 13 0 6522 0 8.13 6.56 9.89 0 0 0
2019-04-20 22:00:00 10.8 10.3 11.5 0 6502 0 5.97 4.95 6.55 0 0 0
2019-04-20 23:00:00 9.7 9.3 10.2 0 6502 0 5.23 3.98 6.63 0 0 0
2019-04-21 00:00:00 8.7 8.3 9.2 0 6484 0 2.78 1.47 3.71 0 0 0
2019-04-21 01:00:00 7.7 7.3 8.2 0 6484 0 1.1 0.49 1.52 0 0 0
2019-04-21 02:00:00 7.1 6.7 7.4 0 6474 0 0.84 0.51 1.23 0 0 0
2019-04-21 03:00:00 6.5 6.3 6.7 0 6464 0 0.44 0.13 0.81 0 0 0
2019-04-21 04:00:00 6 5.7 6.4 0 6474 0 0.1 -0.31 0.6 0 0 0
2019-04-21 05:00:00 5.5 5.3 5.8 0 6464 0 -1.05 -1.56 -0.52 0 0 0
2019-04-21 06:00:00 5 4.9 5.3 0 6464 0 -0.98 -1.32 -0.47 0 0 0
2019-04-21 07:00:00 4.8 4.7 5.1 0 6464 0 -1.51 -2.28 -0.8 0 0 0
2019-04-21 08:00:00 6.1 5.3 7 0 6512 0 1.78 -0.58 4.28 0 0 0
2019-04-21 09:00:00 8.5 7.3 9.9 0 6572 0 6.97 4.79 8.58 0 0 0
2019-04-21 10:00:00 12.6 10.6 13.8 0 6610 0 10.69 9.03 11.56 0 0 0
2019-04-21 11:00:00 16.1 13.7 19.1 0 6698 0 13.2 11.68 14.84 0 0 0
2019-04-21 12:00:00 20.6 19.2 21.5 0 6688 0 16.26 15.03 17.58 0 0 0
2019-04-21 13:00:00 22.2 21.7 22.9 0 6678 0 17.17 16.56 18.02 0 0 0
2019-04-21 14:00:00 20.9 19.9 22.8 0 6688 0 16.54 15.69 18.25 0 0 0
2019-04-21 15:00:00 22 20.8 23.8 0 6660 0 17.28 16.64 18.28 0 0 0
2019-04-21 16:00:00 23.1 21.5 24.4 0 6688 0 18.63 16.89 20.57 0 0 0
2019-04-21 17:00:00 23.2 21.2 24.6 0 6630 0 18.34 17.01 19.49 0 0 0
2019-04-21 18:00:00 19.9 19.5 20.8 0 6650 0 16.65 16.27 17.45 0 0 0